Time;durP1;ratioP1;P1;durP2;ratioP2;P2;SDS_P1;SDS_P2;PMS_P1;PMS_P2;Temp;Humidity;BMP_temperature;BMP_pressure;BME280_temperature;BME280_humidity;BME280_pressure;Samples;Min_cycle;Max_cycle;Signal;HPM_P1;HPM_P2
2022/08/06 00:00:41;;;;;;;;;;;;;;;-147.11;100.00;61570.13;5073966;28;19942;-61
2022/08/06 00:03:07;;;;;;;;;;;;;;;-147.11;100.00;61570.13;5076115;28;19917;-63
2022/08/06 00:05:32;;;;;;;;;;;;;;;-147.11;100.00;61570.13;5058808;28;19917;-63
2022/08/06 00:07:57;;;;;;;;;;;;;;;-147.11;100.00;61570.13;5067041;28;20029;-63
2022/08/06 00:10:23;;;;;;;;;;;;;;;-147.11;100.00;61570.13;5075208;28;20397;-61
2022/08/06 00:12:48;;;;;;;;;;;;;;;-147.11;100.00;61570.13;5075469;28;19927;-63
2022/08/06 00:15:15;;;;;;;;;;;;;;;-147.11;100.00;61570.13;5075849;28;19923;-64
2022/08/06 00:17:43;;;;;;;;;;;;;;;-147.11;100.00;61570.13;5075522;28;19916;-61
2022/08/06 00:20:09;;;;;;;;;;;;;;;-147.11;100.00;61570.13;5075405;28;19919;-63
2022/08/06 00:22:34;;;;;;;;;;;;;;;-147.11;100.00;61570.13;5075019;28;19916;-63
2022/08/06 00:24:59;;;;;;;;;;;;;;;-147.11;100.00;61570.13;5075382;28;19916;-60
2022/08/06 00:27:25;;;;;;;;;;;;;;;-147.11;100.00;61570.13;5075211;28;19927;-59
2022/08/06 00:29:50;;;;;;;;;;;;;;;-147.11;100.00;61570.13;5075375;28;19916;-60
2022/08/06 00:32:16;;;;;;;;;;;;;;;-147.11;100.00;61570.13;5073659;28;20016;-60
2022/08/06 00:34:41;;;;;;;;;;;;;;;-147.11;100.00;61570.13;5075236;28;20072;-63
2022/08/06 00:37:06;;;;;;;;;;;;;;;-147.11;100.00;61570.13;5075612;28;20429;-63
2022/08/06 00:39:32;;;;;;;;;;;;;;;-147.11;100.00;61570.13;5075539;28;19912;-60
2022/08/06 00:41:57;;;;;;;;;;;;;;;-147.11;100.00;61570.13;5074239;28;19916;-63
2022/08/06 00:44:22;;;;;;;;;;;;;;;-147.11;100.00;61570.13;5074999;28;19921;-63
2022/08/06 00:46:48;;;;;;;;;;;;;;;-147.11;100.00;61570.13;5074355;28;19921;-61
2022/08/06 00:49:14;;;;;;;;;;;;;;;-147.11;100.00;61570.13;5068130;28;19916;-59
2022/08/06 00:51:39;;;;;;;;;;;;;;;-147.11;100.00;61570.13;5066993;28;19927;-63
2022/08/06 00:54:05;;;;;;;;;;;;;;;-147.11;100.00;61570.13;5073735;28;19920;-64
2022/08/06 00:56:30;;;;;;;;;;;;;;;-147.11;100.00;61570.13;5075042;28;19939;-61
2022/08/06 00:58:55;;;;;;;;;;;;;;;-147.11;100.00;61570.13;5074921;28;20536;-62
2022/08/06 01:01:21;;;;;;;;;;;;;;;-147.11;100.00;61570.13;5075156;28;19923;-61
2022/08/06 01:03:46;;;;;;;;;;;;;;;-147.11;100.00;61570.13;5071519;28;20294;-60
2022/08/06 01:06:11;;;;;;;;;;;;;;;-147.11;100.00;61570.13;5054991;28;19947;-63
2022/08/06 01:08:37;;;;;;;;;;;;;;;-147.11;100.00;61570.13;5070812;28;19912;-63
2022/08/06 01:11:02;;;;;;;;;;;;;;;-147.11;100.00;61570.13;5074378;28;20298;-63
2022/08/06 01:13:27;;;;;;;;;;;;;;;-147.11;100.00;61570.13;5089627;22;21074;-56
2022/08/06 01:16:05;;;;;;;;;;;;;;;-147.11;100.00;61570.13;5066733;28;19921;-61
2022/08/06 01:18:35;;;;;;;;;;;;;;;-147.11;100.00;61570.13;5073510;28;19923;-54
2022/08/06 01:21:19;;;;;;;;;;;;;;;-147.11;100.00;61570.13;5082131;28;19916;-56
2022/08/06 01:23:52;;;;;;;;;;;;;;;-147.11;100.00;61570.13;5079535;28;19931;-57
2022/08/06 01:26:23;;;;;;;;;;;;;;;-147.11;100.00;61570.13;5054848;28;19968;-63
2022/08/06 01:29:03;;;;;;;;;;;;;;;-147.11;100.00;61570.13;5056151;28;20021;-57
2022/08/06 01:31:41;;;;;;;;;;;;;;;-147.11;100.00;61570.13;5058786;28;19971;-58
2022/08/06 01:34:12;;;;;;;;;;;;;;;-147.11;100.00;61570.13;5072947;28;19919;-56
2022/08/06 01:36:43;;;;;;;;;;;;;;;-147.11;100.00;61570.13;5059140;28;19920;-61
2022/08/06 01:39:10;;;;;;;;;;;;;;;-147.11;100.00;61570.13;5062856;28;19913;-67
2022/08/06 01:41:45;;;;;;;;;;;;;;;-147.11;100.00;61570.13;5045520;28;19923;-60
2022/08/06 01:44:11;;;;;;;;;;;;;;;-147.11;100.00;61570.13;5069563;28;19955;-60
2022/08/06 01:46:39;;;;;;;;;;;;;;;-147.11;100.00;61570.13;5072501;28;20299;-58
2022/08/06 01:49:06;;;;;;;;;;;;;;;-147.11;100.00;61570.13;5051027;28;19933;-56
2022/08/06 01:51:33;;;;;;;;;;;;;;;-147.11;100.00;61570.13;5046365;28;19999;-59
2022/08/06 01:53:59;;;;;;;;;;;;;;;-147.11;100.00;61570.13;5066899;28;19995;-58
2022/08/06 01:56:26;;;;;;;;;;;;;;;-147.11;100.00;61570.13;5068581;28;19920;-54
2022/08/06 01:58:52;;;;;;;;;;;;;;;-147.11;100.00;61570.13;5067264;28;19920;-57
2022/08/06 02:01:19;;;;;;;;;;;;;;;-147.11;100.00;61570.13;5062214;28;20042;-55
2022/08/06 02:03:49;;;;;;;;;;;;;;;-147.11;100.00;61570.13;5065831;28;20414;-54
2022/08/06 02:06:17;;;;;;;;;;;;;;;-147.11;100.00;61570.13;5032723;28;19925;-58
2022/08/06 02:08:44;;;;;;;;;;;;;;;-147.11;100.00;61570.13;5065859;28;19920;-56
2022/08/06 02:11:10;;;;;;;;;;;;;;;-147.11;100.00;61570.13;5071777;28;19916;-55
2022/08/06 02:13:36;;;;;;;;;;;;;;;-147.11;100.00;61570.13;5070578;28;20264;-54
2022/08/06 02:16:03;;;;;;;;;;;;;;;-147.11;100.00;61570.13;5066862;28;20012;-54
2022/08/06 02:18:31;;;;;;;;;;;;;;;-147.11;100.00;61570.13;5067556;28;19919;-56
2022/08/06 02:20:57;;;;;;;;;;;;;;;-147.11;100.00;61570.13;5071765;28;19962;-54
2022/08/06 02:23:24;;;;;;;;;;;;;;;-147.11;100.00;61570.13;5071799;28;20470;-58
2022/08/06 02:25:51;;;;;;;;;;;;;;;-147.11;100.00;61570.13;5064440;28;19921;-58
2022/08/06 02:28:18;;;;;;;;;;;;;;;-147.11;100.00;61570.13;5045324;28;19970;-56
2022/08/06 02:30:45;;;;;;;;;;;;;;;-147.11;100.00;61570.13;5054261;28;20467;-59
2022/08/06 02:33:11;;;;;;;;;;;;;;;-147.11;100.00;61570.13;5046835;28;19970;-56
2022/08/06 02:35:42;;;;;;;;;;;;;;;-147.11;100.00;61570.13;5059401;28;19916;-55
2022/08/06 02:38:11;;;;;;;;;;;;;;;-147.11;100.00;61570.13;5068560;28;19912;-57
2022/08/06 02:40:40;;;;;;;;;;;;;;;-147.11;100.00;61570.13;5062495;28;19916;-58
2022/08/06 02:43:13;;;;;;;;;;;;;;;-147.11;100.00;61570.13;5071315;28;20395;-60
2022/08/06 02:45:42;;;;;;;;;;;;;;;-147.11;100.00;61570.13;5071581;28;19920;-54
2022/08/06 02:48:10;;;;;;;;;;;;;;;-147.11;100.00;61570.13;5063902;28;19995;-58
2022/08/06 02:50:39;;;;;;;;;;;;;;;-147.11;100.00;61570.13;5038158;28;20020;-60
2022/08/06 02:53:16;;;;;;;;;;;;;;;-147.11;100.00;61570.13;5059876;28;19963;-57
2022/08/06 02:55:44;;;;;;;;;;;;;;;-147.11;100.00;61570.13;5071400;28;19963;-53
2022/08/06 02:58:11;;;;;;;;;;;;;;;-147.11;100.00;61570.13;5061989;28;19917;-56
2022/08/06 03:00:39;;;;;;;;;;;;;;;-147.11;100.00;61570.13;5070967;28;19951;-57
2022/08/06 03:03:07;;;;;;;;;;;;;;;-147.11;100.00;61570.13;5071509;28;19916;-57
2022/08/06 03:05:32;;;;;;;;;;;;;;;-147.11;100.00;61570.13;5042365;28;19917;-58
2022/08/06 03:07:58;;;;;;;;;;;;;;;-147.11;100.00;61570.13;5049600;28;20004;-58
2022/08/06 03:10:25;;;;;;;;;;;;;;;-147.11;100.00;61570.13;5072427;28;20302;-54
2022/08/06 03:12:52;;;;;;;;;;;;;;;-147.11;100.00;61570.13;5075840;28;19916;-55
2022/08/06 03:15:18;;;;;;;;;;;;;;;-147.11;100.00;61570.13;5075436;28;19965;-57
2022/08/06 03:17:45;;;;;;;;;;;;;;;-147.11;100.00;61570.13;5073392;28;19917;-55
2022/08/06 03:20:11;;;;;;;;;;;;;;;-147.11;100.00;61570.13;5072659;28;20367;-55
2022/08/06 03:22:36;;;;;;;;;;;;;;;-147.11;100.00;61570.13;5075038;28;19938;-54
2022/08/06 03:25:02;;;;;;;;;;;;;;;-147.11;100.00;61570.13;5071474;28;20374;-56
2022/08/06 03:27:28;;;;;;;;;;;;;;;-147.11;100.00;61570.13;5075078;28;20391;-54
2022/08/06 03:29:54;;;;;;;;;;;;;;;-147.11;100.00;61570.13;5064839;28;19916;-54
2022/08/06 03:32:20;;;;;;;;;;;;;;;-147.11;100.00;61570.13;5074688;28;19962;-57
2022/08/06 03:34:46;;;;;;;;;;;;;;;-147.11;100.00;61570.13;5074945;28;19916;-58
2022/08/06 03:37:12;;;;;;;;;;;;;;;-147.11;100.00;61570.13;5075292;28;19919;-60
2022/08/06 03:39:39;;;;;;;;;;;;;;;-147.11;100.00;61570.13;5064532;28;19917;-56
2022/08/06 03:42:04;;;;;;;;;;;;;;;-147.11;100.00;61570.13;5066671;28;20394;-55
2022/08/06 03:44:30;;;;;;;;;;;;;;;-147.11;100.00;61570.13;5055222;28;19917;-55
2022/08/06 03:47:19;;;;;;;;;;;;;;;-147.11;100.00;61570.13;5054987;28;20059;-54
2022/08/06 03:50:03;;;;;;;;;;;;;;;-147.11;100.00;61570.13;5036640;28;19912;-57
2022/08/06 03:52:31;;;;;;;;;;;;;;;-147.11;100.00;61570.13;5054321;28;19939;-57
2022/08/06 03:54:58;;;;;;;;;;;;;;;-147.11;100.00;61570.13;5052111;28;19921;-59
2022/08/06 03:57:25;;;;;;;;;;;;;;;-147.11;100.00;61570.13;5054917;28;19927;-54
2022/08/06 03:59:52;;;;;;;;;;;;;;;-147.11;100.00;61570.13;5054732;28;19921;-53
2022/08/06 04:02:18;;;;;;;;;;;;;;;-147.11;100.00;61570.13;5054758;28;19913;-58
2022/08/06 04:04:44;;;;;;;;;;;;;;;-147.11;100.00;61570.13;5043957;28;20465;-54
2022/08/06 04:07:12;;;;;;;;;;;;;;;-147.11;100.00;61570.13;5043757;28;19921;-58
2022/08/06 04:09:37;;;;;;;;;;;;;;;-147.11;100.00;61570.13;5063197;28;19924;-58
2022/08/06 04:12:03;;;;;;;;;;;;;;;-147.11;100.00;61570.13;5054070;28;20299;-56
2022/08/06 04:14:29;;;;;;;;;;;;;;;-147.11;100.00;61570.13;5054326;28;20007;-58
2022/08/06 04:16:55;;;;;;;;;;;;;;;-147.11;100.00;61570.13;5062388;28;19962;-60
2022/08/06 04:19:22;;;;;;;;;;;;;;;-147.11;100.00;61570.13;5057889;28;19921;-63
2022/08/06 04:21:47;;;;;;;;;;;;;;;-147.11;100.00;61570.13;5060594;28;19924;-60
2022/08/06 04:24:13;;;;;;;;;;;;;;;-147.11;100.00;61570.13;5074297;28;19924;-58
2022/08/06 04:26:39;;;;;;;;;;;;;;;-147.11;100.00;61570.13;5074051;28;20471;-58
2022/08/06 04:29:06;;;;;;;;;;;;;;;-147.11;100.00;61570.13;5065393;28;19932;-59
2022/08/06 04:31:32;;;;;;;;;;;;;;;-147.11;100.00;61570.13;5070792;28;19916;-56
2022/08/06 04:33:59;;;;;;;;;;;;;;;-147.11;100.00;61570.13;5070099;28;19923;-56
2022/08/06 04:36:25;;;;;;;;;;;;;;;-147.11;100.00;61570.13;5073905;28;19912;-54
2022/08/06 04:38:51;;;;;;;;;;;;;;;-147.11;100.00;61570.13;5066635;28;19917;-57
2022/08/06 04:41:16;;;;;;;;;;;;;;;-147.11;100.00;61570.13;5071885;28;19912;-55
2022/08/06 04:43:41;;;;;;;;;;;;;;;-147.11;100.00;61570.13;5073795;28;19923;-61
2022/08/06 04:46:08;;;;;;;;;;;;;;;-147.11;100.00;61570.13;5061482;28;19924;-55
2022/08/06 04:48:34;;;;;;;;;;;;;;;-147.11;100.00;61570.13;5072052;28;20026;-53
2022/08/06 04:51:01;;;;;;;;;;;;;;;-147.11;100.00;61570.13;5060343;28;19912;-54
2022/08/06 04:53:27;;;;;;;;;;;;;;;-147.11;100.00;61570.13;5058618;28;19925;-56
2022/08/06 04:55:52;;;;;;;;;;;;;;;-147.11;100.00;61570.13;5073497;28;19920;-57
2022/08/06 04:58:17;;;;;;;;;;;;;;;-147.11;100.00;61570.13;5065188;28;19920;-56
2022/08/06 05:00:44;;;;;;;;;;;;;;;-147.11;100.00;61570.13;5073127;28;19916;-55
2022/08/06 05:03:09;;;;;;;;;;;;;;;-147.11;100.00;61570.13;5073348;28;19966;-55
2022/08/06 05:05:39;;;;;;;;;;;;;;;-147.11;100.00;61570.13;5038732;28;20334;-54
2022/08/06 05:08:06;;;;;;;;;;;;;;;-147.11;100.00;61570.13;5059623;28;20390;-61
2022/08/06 05:10:34;;;;;;;;;;;;;;;-147.11;100.00;61570.13;5072761;28;20356;-56
2022/08/06 05:13:01;;;;;;;;;;;;;;;-147.11;100.00;61570.13;5073325;28;19995;-55
2022/08/06 05:15:29;;;;;;;;;;;;;;;-147.11;100.00;61570.13;5073293;28;19917;-58
2022/08/06 05:18:13;;;;;;;;;;;;;;;-147.11;100.00;61570.13;5069636;28;19916;-60
2022/08/06 05:20:40;;;;;;;;;;;;;;;-147.11;100.00;61570.13;5044293;28;19912;-55
2022/08/06 05:23:15;;;;;;;;;;;;;;;-147.11;100.00;61570.13;5068037;28;19916;-54
2022/08/06 05:25:40;;;;;;;;;;;;;;;-147.11;100.00;61570.13;5062362;28;19917;-57
2022/08/06 05:28:06;;;;;;;;;;;;;;;-147.11;100.00;61570.13;5072266;28;20393;-54
2022/08/06 05:30:31;;;;;;;;;;;;;;;-147.11;100.00;61570.13;5062144;28;19923;-55
2022/08/06 05:32:58;;;;;;;;;;;;;;;-147.11;100.00;61570.13;5070266;28;19916;-59
2022/08/06 05:35:23;;;;;;;;;;;;;;;-147.11;100.00;61570.13;5053232;28;19913;-57
2022/08/06 05:37:49;;;;;;;;;;;;;;;-147.11;100.00;61570.13;5053236;28;19913;-53
2022/08/06 05:40:14;;;;;;;;;;;;;;;-147.11;100.00;61570.13;5052525;28;20035;-54
2022/08/06 05:42:39;;;;;;;;;;;;;;;-147.11;100.00;61570.13;5051108;28;19923;-56
2022/08/06 05:45:08;;;;;;;;;;;;;;;-147.11;100.00;61570.13;5062635;28;20368;-56
2022/08/06 05:47:37;;;;;;;;;;;;;;;-147.11;100.00;61570.13;5068832;28;19917;-57
2022/08/06 05:50:07;;;;;;;;;;;;;;;-147.11;100.00;61570.13;5060337;28;20326;-56
2022/08/06 05:52:35;;;;;;;;;;;;;;;-147.11;100.00;61570.13;5050905;28;19913;-58
2022/08/06 05:55:14;;;;;;;;;;;;;;;-147.11;100.00;61570.13;5072409;28;19918;-56
2022/08/06 05:57:42;;;;;;;;;;;;;;;-147.11;100.00;61570.13;5059787;28;19940;-54
2022/08/06 06:00:10;;;;;;;;;;;;;;;-147.11;100.00;61570.13;5064795;28;19913;-57
2022/08/06 06:02:36;;;;;;;;;;;;;;;-147.11;100.00;61570.13;5070483;28;19947;-53
2022/08/06 06:05:02;;;;;;;;;;;;;;;-147.11;100.00;61570.13;5040712;28;20376;-60
2022/08/06 06:07:28;;;;;;;;;;;;;;;-147.11;100.00;61570.13;5048245;28;19960;-55
2022/08/06 06:09:54;;;;;;;;;;;;;;;-147.11;100.00;61570.13;5059939;28;20291;-53
2022/08/06 06:12:20;;;;;;;;;;;;;;;-147.11;100.00;61570.13;5056015;28;19917;-55
2022/08/06 06:14:47;;;;;;;;;;;;;;;-147.11;100.00;61570.13;5058998;28;19916;-57
2022/08/06 06:17:24;;;;;;;;;;;;;;;-147.11;100.00;61570.13;5054310;28;19951;-60
2022/08/06 06:19:57;;;;;;;;;;;;;;;-147.11;100.00;61570.13;5058860;28;20002;-56
2022/08/06 06:22:28;;;;;;;;;;;;;;;-147.11;100.00;61570.13;5049380;28;19920;-54
2022/08/06 06:25:17;;;;;;;;;;;;;;;-147.11;100.00;61570.13;5058860;28;19955;-59
2022/08/06 06:27:51;;;;;;;;;;;;;;;-147.11;100.00;61570.13;5052371;28;19916;-54
2022/08/06 06:30:20;;;;;;;;;;;;;;;-147.11;100.00;61570.13;5054925;28;19913;-61
2022/08/06 06:32:55;;;;;;;;;;;;;;;-147.11;100.00;61570.13;5058667;28;19920;-58
2022/08/06 06:35:39;;;;;;;;;;;;;;;-147.11;100.00;61570.13;5055154;28;19913;-56
2022/08/06 06:38:18;;;;;;;;;;;;;;;-147.11;100.00;61570.13;5056177;28;19991;-55
2022/08/06 06:40:43;;;;;;;;;;;;;;;-147.11;100.00;61570.13;5057692;28;19996;-61
2022/08/06 06:43:15;;;;;;;;;;;;;;;-147.11;100.00;61570.13;5054900;28;19944;-54
2022/08/06 06:46:00;;;;;;;;;;;;;;;-147.11;100.00;61570.13;5058114;28;19916;-57
2022/08/06 06:48:33;;;;;;;;;;;;;;;-147.11;100.00;61570.13;5054456;28;19917;-58
2022/08/06 06:51:01;;;;;;;;;;;;;;;-147.11;100.00;61570.13;5037132;28;19959;-57
2022/08/06 06:53:30;;;;;;;;;;;;;;;-147.11;100.00;61570.13;5050414;28;20385;-53
2022/08/06 06:55:56;;;;;;;;;;;;;;;-147.11;100.00;61570.13;5052077;28;20004;-54
2022/08/06 06:58:37;;;;;;;;;;;;;;;-147.11;100.00;61570.13;5053845;28;20300;-55
2022/08/06 07:01:06;;;;;;;;;;;;;;;-147.11;100.00;61570.13;5053563;28;19913;-55
2022/08/06 07:03:34;;;;;;;;;;;;;;;-147.11;100.00;61570.13;5055109;28;19920;-55
2022/08/06 07:06:01;;;;;;;;;;;;;;;-147.11;100.00;61570.13;5039010;28;19923;-56
2022/08/06 07:08:28;;;;;;;;;;;;;;;-147.11;100.00;61570.13;5059331;28;19913;-54
2022/08/06 07:10:55;;;;;;;;;;;;;;;-147.11;100.00;61570.13;5070066;28;20298;-55
2022/08/06 07:13:21;;;;;;;;;;;;;;;-147.11;100.00;61570.13;5054817;28;19943;-58
2022/08/06 07:15:47;;;;;;;;;;;;;;;-147.11;100.00;61570.13;5105875;22;19958;-63
2022/08/06 07:18:13;;;;;;;;;;;;;;;-147.11;100.00;61570.13;5087543;28;19916;-61
2022/08/06 07:20:39;;;;;;;;;;;;;;;-147.11;100.00;61570.13;5092050;28;19938;-62
2022/08/06 07:23:06;;;;;;;;;;;;;;;-147.11;100.00;61570.13;5092378;28;19920;-62
2022/08/06 07:25:39;;;;;;;;;;;;;;;-147.11;100.00;61570.13;5080576;28;19955;-60
2022/08/06 07:28:05;;;;;;;;;;;;;;;-147.11;100.00;61570.13;5092032;28;20287;-62
2022/08/06 07:30:32;;;;;;;;;;;;;;;-147.11;100.00;61570.13;5081502;28;19912;-60
2022/08/06 07:32:58;;;;;;;;;;;;;;;-147.11;100.00;61570.13;5091381;28;19961;-60
2022/08/06 07:35:23;;;;;;;;;;;;;;;-147.11;100.00;61570.13;5092450;28;19916;-60
2022/08/06 07:38:02;;;;;;;;;;;;;;;-147.11;100.00;61570.13;5092365;28;20294;-59
2022/08/06 07:40:27;;;;;;;;;;;;;;;-147.11;100.00;61570.13;5072532;28;20302;-63
2022/08/06 07:42:55;;;;;;;;;;;;;;;-147.11;100.00;61570.13;5088153;28;19919;-60
2022/08/06 07:45:23;;;;;;;;;;;;;;;-147.11;100.00;61570.13;5091725;28;19916;-62
2022/08/06 07:47:49;;;;;;;;;;;;;;;-147.11;100.00;61570.13;5091349;28;19935;-59
2022/08/06 07:50:15;;;;;;;;;;;;;;;-147.11;100.00;61570.13;5081929;28;19913;-63
2022/08/06 07:52:41;;;;;;;;;;;;;;;-147.11;100.00;61570.13;5092212;28;20383;-63
2022/08/06 07:55:10;;;;;;;;;;;;;;;-147.11;100.00;61570.13;5096474;28;19952;-64
2022/08/06 07:57:36;;;;;;;;;;;;;;;-147.11;100.00;61570.13;5094072;28;19912;-63
2022/08/06 08:00:02;;;;;;;;;;;;;;;-147.11;100.00;61570.13;5096360;28;19912;-58
2022/08/06 08:02:28;;;;;;;;;;;;;;;-147.11;100.00;61570.13;5095352;28;20286;-60
2022/08/06 08:07:38;;;;;;;;;;;;;;;-147.11;100.00;61570.13;5075778;28;20456;-59
2022/08/06 08:10:03;;;;;;;;;;;;;;;-147.11;100.00;61570.13;5075762;28;19913;-60
2022/08/06 08:12:29;;;;;;;;;;;;;;;-147.11;100.00;61570.13;5075925;28;19916;-61
2022/08/06 08:14:54;;;;;;;;;;;;;;;-147.11;100.00;61570.13;5075746;28;19920;-59
2022/08/06 08:17:19;;;;;;;;;;;;;;;-147.11;100.00;61570.13;5076051;28;19913;-62
2022/08/06 08:19:45;;;;;;;;;;;;;;;-147.11;100.00;61570.13;5075983;28;20344;-61
2022/08/06 08:22:17;;;;;;;;;;;;;;;-147.11;100.00;61570.13;5075077;28;19916;-63
2022/08/06 08:24:44;;;;;;;;;;;;;;;-147.11;100.00;61570.13;5075732;28;19912;-61
2022/08/06 08:27:10;;;;;;;;;;;;;;;-147.11;100.00;61570.13;5075097;28;19924;-63
2022/08/06 08:29:36;;;;;;;;;;;;;;;-147.11;100.00;61570.13;5079164;28;20263;-63
2022/08/06 08:32:02;;;;;;;;;;;;;;;-147.11;100.00;61570.13;5081321;28;19913;-62
2022/08/06 08:34:28;;;;;;;;;;;;;;;-147.11;100.00;61570.13;5075277;28;19916;-63
2022/08/06 08:36:53;;;;;;;;;;;;;;;-147.11;100.00;61570.13;5083323;28;19931;-62
2022/08/06 08:39:18;;;;;;;;;;;;;;;-147.11;100.00;61570.13;5094269;28;19948;-59
2022/08/06 08:41:58;;;;;;;;;;;;;;;-147.11;100.00;61570.13;5093642;28;19950;-60
2022/08/06 08:44:26;;;;;;;;;;;;;;;-147.11;100.00;61570.13;5092789;28;19913;-58
2022/08/06 08:46:53;;;;;;;;;;;;;;;-147.11;100.00;61570.13;5094292;28;19959;-62
2022/08/06 08:49:37;;;;;;;;;;;;;;;-147.11;100.00;61570.13;5084927;28;19935;-61
2022/08/06 08:52:03;;;;;;;;;;;;;;;-147.11;100.00;61570.13;5078459;28;19919;-60
2022/08/06 08:54:31;;;;;;;;;;;;;;;-147.11;100.00;61570.13;5094128;28;19923;-61
2022/08/06 08:56:56;;;;;;;;;;;;;;;-147.11;100.00;61570.13;5095174;28;19927;-63
2022/08/06 08:59:22;;;;;;;;;;;;;;;-147.11;100.00;61570.13;5092573;28;20294;-62
2022/08/06 09:01:47;;;;;;;;;;;;;;;-147.11;100.00;61570.13;5093718;28;20302;-62
2022/08/06 09:04:13;;;;;;;;;;;;;;;-147.11;100.00;61570.13;5086278;28;20038;-61
2022/08/06 09:06:38;;;;;;;;;;;;;;;-147.11;100.00;61570.13;5074153;28;19916;-59
2022/08/06 09:09:05;;;;;;;;;;;;;;;-147.11;100.00;61570.13;5073236;28;19924;-60
2022/08/06 09:11:31;;;;;;;;;;;;;;;-147.11;100.00;61570.13;5074114;28;19912;-60
2022/08/06 09:13:59;;;;;;;;;;;;;;;-147.11;100.00;61570.13;5074017;28;19995;-63
2022/08/06 09:16:24;;;;;;;;;;;;;;;-147.11;100.00;61570.13;5082055;28;19916;-63
2022/08/06 09:18:50;;;;;;;;;;;;;;;-147.11;100.00;61570.13;5079880;28;20040;-63
2022/08/06 09:21:16;;;;;;;;;;;;;;;-147.11;100.00;61570.13;5092196;28;20003;-63
2022/08/06 09:23:41;;;;;;;;;;;;;;;-147.11;100.00;61570.13;5086760;28;19923;-60
2022/08/06 09:26:07;;;;;;;;;;;;;;;-147.11;100.00;61570.13;5072265;28;20398;-61
2022/08/06 09:28:34;;;;;;;;;;;;;;;-147.11;100.00;61570.13;5076228;28;19920;-63
2022/08/06 09:31:01;;;;;;;;;;;;;;;-147.11;100.00;61570.13;5079920;28;19918;-58
2022/08/06 09:33:26;;;;;;;;;;;;;;;-147.11;100.00;61570.13;5072964;28;19916;-63
2022/08/06 09:36:03;;;;;;;;;;;;;;;-147.11;100.00;61570.13;5074211;28;20019;-59
2022/08/06 09:38:29;;;;;;;;;;;;;;;-147.11;100.00;61570.13;5078051;28;19920;-63
2022/08/06 09:41:08;;;;;;;;;;;;;;;-147.11;100.00;61570.13;5093280;28;19916;-61
2022/08/06 09:43:34;;;;;;;;;;;;;;;-147.11;100.00;61570.13;5074307;28;19951;-62
2022/08/06 09:45:59;;;;;;;;;;;;;;;-147.11;100.00;61570.13;5087313;28;19920;-62
2022/08/06 09:48:24;;;;;;;;;;;;;;;-147.11;100.00;61570.13;5073936;28;19917;-63
2022/08/06 09:50:50;;;;;;;;;;;;;;;-147.11;100.00;61570.13;5075085;28;19920;-61
2022/08/06 09:53:17;;;;;;;;;;;;;;;-147.11;100.00;61570.13;5093390;28;19916;-62
2022/08/06 09:55:43;;;;;;;;;;;;;;;-147.11;100.00;61570.13;5076672;28;20383;-60
2022/08/06 09:58:08;;;;;;;;;;;;;;;-147.11;100.00;61570.13;5085530;28;19919;-60
2022/08/06 10:00:35;;;;;;;;;;;;;;;-147.11;100.00;61570.13;5089545;28;20026;-61
2022/08/06 10:03:02;;;;;;;;;;;;;;;-147.11;100.00;61570.13;5072334;28;19912;-60
2022/08/06 10:05:28;;;;;;;;;;;;;;;-147.11;100.00;61570.13;5072436;28;19912;-59
2022/08/06 10:08:09;;;;;;;;;;;;;;;-147.11;100.00;61570.13;5082597;28;20367;-61
2022/08/06 10:10:39;;;;;;;;;;;;;;;-147.11;100.00;61570.13;5073364;28;19916;-56
2022/08/06 10:13:11;;;;;;;;;;;;;;;-147.11;100.00;61570.13;5079548;28;19916;-59
2022/08/06 10:15:37;;;;;;;;;;;;;;;-147.11;100.00;61570.13;5072015;28;19920;-57
2022/08/06 10:18:02;;;;;;;;;;;;;;;-147.11;100.00;61570.13;5079832;28;19916;-60
2022/08/06 10:20:27;;;;;;;;;;;;;;;-147.11;100.00;61570.13;5084568;28;19923;-57
2022/08/06 10:23:00;;;;;;;;;;;;;;;-147.11;100.00;61570.13;5072140;28;20345;-60
2022/08/06 10:25:27;;;;;;;;;;;;;;;-147.11;100.00;61570.13;5072198;28;19919;-60
2022/08/06 10:27:53;;;;;;;;;;;;;;;-147.11;100.00;61570.13;5072315;28;20375;-62
2022/08/06 10:30:20;;;;;;;;;;;;;;;-147.11;100.00;61570.13;5079838;28;20010;-59
2022/08/06 10:32:48;;;;;;;;;;;;;;;-147.11;100.00;61570.13;5070653;28;19924;-58
2022/08/06 10:35:15;;;;;;;;;;;;;;;-147.11;100.00;61570.13;5072166;28;20374;-57
2022/08/06 10:37:42;;;;;;;;;;;;;;;-147.11;100.00;61570.13;5072004;28;20011;-63
2022/08/06 10:40:09;;;;;;;;;;;;;;;-147.11;100.00;61570.13;5082509;28;19916;-59
2022/08/06 10:42:34;;;;;;;;;;;;;;;-147.11;100.00;61570.13;5071573;28;19916;-56
2022/08/06 10:45:00;;;;;;;;;;;;;;;-147.11;100.00;61570.13;5072437;28;19975;-56
2022/08/06 10:47:27;;;;;;;;;;;;;;;-147.11;100.00;61570.13;5080097;28;20409;-56
2022/08/06 10:49:53;;;;;;;;;;;;;;;-147.11;100.00;61570.13;5071899;28;19912;-58
2022/08/06 10:52:18;;;;;;;;;;;;;;;-147.11;100.00;61570.13;5085550;28;19919;-60
2022/08/06 10:54:44;;;;;;;;;;;;;;;-147.11;100.00;61570.13;5072025;28;19913;-57
2022/08/06 10:57:12;;;;;;;;;;;;;;;-147.11;100.00;61570.13;5081106;28;20378;-61
2022/08/06 10:59:37;;;;;;;;;;;;;;;-147.11;100.00;61570.13;5081154;28;19924;-62
2022/08/06 11:02:21;;;;;;;;;;;;;;;-147.11;100.00;61570.13;5071418;28;19927;-60
2022/08/06 11:04:58;;;;;;;;;;;;;;;-147.11;100.00;61570.13;5073396;28;20007;-57
2022/08/06 11:07:23;;;;;;;;;;;;;;;-147.11;100.00;61570.13;5071528;28;19916;-60
2022/08/06 11:10:07;;;;;;;;;;;;;;;-147.11;100.00;61570.13;5084425;28;19919;-60
2022/08/06 11:12:42;;;;;;;;;;;;;;;-147.11;100.00;61570.13;5091458;28;19998;-60
2022/08/06 11:15:07;;;;;;;;;;;;;;;-147.11;100.00;61570.13;5091783;28;19924;-60
2022/08/06 11:17:47;;;;;;;;;;;;;;;-147.11;100.00;61570.13;5091972;28;19935;-60
2022/08/06 11:20:31;;;;;;;;;;;;;;;-147.11;100.00;61570.13;5091098;28;19912;-64
2022/08/06 11:22:57;;;;;;;;;;;;;;;-147.11;100.00;61570.13;5085409;28;19919;-62
2022/08/06 11:25:50;;;;;;;;;;;;;;;-147.11;100.00;61570.13;5091688;28;19920;-59
2022/08/06 11:28:16;;;;;;;;;;;;;;;-147.11;100.00;61570.13;5093751;28;20322;-60
2022/08/06 11:30:43;;;;;;;;;;;;;;;-147.11;100.00;61570.13;5085819;28;19923;-59
2022/08/06 11:33:10;;;;;;;;;;;;;;;-147.11;100.00;61570.13;5094211;28;19913;-62
2022/08/06 11:35:35;;;;;;;;;;;;;;;-147.11;100.00;61570.13;5095873;28;19912;-59
2022/08/06 11:38:01;;;;;;;;;;;;;;;-147.11;100.00;61570.13;5094546;28;20339;-62
2022/08/06 11:40:26;;;;;;;;;;;;;;;-147.11;100.00;61570.13;5095093;28;20400;-59
2022/08/06 11:42:52;;;;;;;;;;;;;;;-147.11;100.00;61570.13;5095379;28;19959;-57
2022/08/06 11:45:17;;;;;;;;;;;;;;;-147.11;100.00;61570.13;5095356;28;20015;-58
2022/08/06 11:48:01;;;;;;;;;;;;;;;-147.11;100.00;61570.13;5085779;28;19962;-59
2022/08/06 11:50:27;;;;;;;;;;;;;;;-147.11;100.00;61570.13;5080124;28;19920;-60
2022/08/06 11:52:52;;;;;;;;;;;;;;;-147.11;100.00;61570.13;5095084;28;19942;-60
2022/08/06 11:55:18;;;;;;;;;;;;;;;-147.11;100.00;61570.13;5094499;28;19951;-59
2022/08/06 11:57:43;;;;;;;;;;;;;;;-147.11;100.00;61570.13;5095153;28;19921;-60
2022/08/06 12:00:13;;;;;;;;;;;;;;;-147.11;100.00;61570.13;5095053;28;19974;-64
2022/08/06 12:02:41;;;;;;;;;;;;;;;-147.11;100.00;61570.13;5094864;28;19916;-60
2022/08/06 12:05:26;;;;;;;;;;;;;;;-147.11;100.00;61570.13;5080788;28;19920;-63
2022/08/06 12:08:11;;;;;;;;;;;;;;;-147.11;100.00;61570.13;5074568;28;19996;-60
2022/08/06 12:10:36;;;;;;;;;;;;;;;-147.11;100.00;61570.13;5074306;28;20406;-60
2022/08/06 12:13:01;;;;;;;;;;;;;;;-147.11;100.00;61570.13;5077502;28;19913;-64
2022/08/06 12:15:28;;;;;;;;;;;;;;;-147.11;100.00;61570.13;5074416;28;20372;-60
2022/08/06 12:17:54;;;;;;;;;;;;;;;-147.11;100.00;61570.13;5074661;28;19920;-61
2022/08/06 12:20:28;;;;;;;;;;;;;;;-147.11;100.00;61570.13;5081620;28;19912;-60
2022/08/06 12:22:54;;;;;;;;;;;;;;;-147.11;100.00;61570.13;5079532;28;19923;-63
2022/08/06 12:25:19;;;;;;;;;;;;;;;-147.11;100.00;61570.13;5074479;28;19917;-60